sensor_id;sensor_type;location;lat;lon;timestamp;temperature;humidity
2212;DHT22;48849;48.758;9.158;2023-12-29T00:00:49;11.90;99.90
2212;DHT22;48849;48.758;9.158;2023-12-29T00:03:15;11.90;99.90
2212;DHT22;48849;48.758;9.158;2023-12-29T00:05:42;11.90;99.90
2212;DHT22;48849;48.758;9.158;2023-12-29T00:08:09;11.90;99.90
2212;DHT22;48849;48.758;9.158;2023-12-29T00:10:35;11.90;99.90
2212;DHT22;48849;48.758;9.158;2023-12-29T00:13:02;11.90;99.90
2212;DHT22;48849;48.758;9.158;2023-12-29T00:15:29;11.90;99.90
2212;DHT22;48849;48.758;9.158;2023-12-29T00:17:57;11.90;99.90
2212;DHT22;48849;48.758;9.158;2023-12-29T00:20:24;11.90;99.90
2212;DHT22;48849;48.758;9.158;2023-12-29T00:22:51;11.90;99.90
2212;DHT22;48849;48.758;9.158;2023-12-29T00:25:17;11.90;99.90
2212;DHT22;48849;48.758;9.158;2023-12-29T00:27:44;11.90;99.90
2212;DHT22;48849;48.758;9.158;2023-12-29T00:30:11;12.00;99.90
2212;DHT22;48849;48.758;9.158;2023-12-29T00:32:38;12.00;99.90
2212;DHT22;48849;48.758;9.158;2023-12-29T00:35:07;12.00;99.90
2212;DHT22;48849;48.758;9.158;2023-12-29T00:37:34;12.00;99.90
2212;DHT22;48849;48.758;9.158;2023-12-29T00:40:00;12.00;99.90
2212;DHT22;48849;48.758;9.158;2023-12-29T00:42:28;12.00;99.90
2212;DHT22;48849;48.758;9.158;2023-12-29T00:44:54;12.00;99.90
2212;DHT22;48849;48.758;9.158;2023-12-29T00:47:21;12.00;99.90
2212;DHT22;48849;48.758;9.158;2023-12-29T00:49:49;12.10;99.90
2212;DHT22;48849;48.758;9.158;2023-12-29T00:52:17;12.10;99.90
2212;DHT22;48849;48.758;9.158;2023-12-29T00:54:44;12.10;99.90
2212;DHT22;48849;48.758;9.158;2023-12-29T00:57:10;12.10;99.90
2212;DHT22;48849;48.758;9.158;2023-12-29T00:59:37;12.10;99.90
2212;DHT22;48849;48.758;9.158;2023-12-29T01:02:05;12.10;99.90
2212;DHT22;48849;48.758;9.158;2023-12-29T01:04:32;12.10;99.90
2212;DHT22;48849;48.758;9.158;2023-12-29T01:06:58;12.00;99.90
2212;DHT22;48849;48.758;9.158;2023-12-29T01:09:27;12.00;99.90
2212;DHT22;48849;48.758;9.158;2023-12-29T01:11:54;12.00;99.90
2212;DHT22;48849;48.758;9.158;2023-12-29T01:14:21;12.10;99.90
2212;DHT22;48849;48.758;9.158;2023-12-29T01:16:47;12.10;99.90
2212;DHT22;48849;48.758;9.158;2023-12-29T01:19:14;12.10;99.90
2212;DHT22;48849;48.758;9.158;2023-12-29T01:21:41;12.00;99.90
2212;DHT22;48849;48.758;9.158;2023-12-29T01:24:07;12.10;99.90
2212;DHT22;48849;48.758;9.158;2023-12-29T01:26:38;12.10;99.90
2212;DHT22;48849;48.758;9.158;2023-12-29T01:29:05;12.10;99.90
2212;DHT22;48849;48.758;9.158;2023-12-29T01:31:32;12.10;99.90
2212;DHT22;48849;48.758;9.158;2023-12-29T01:33:59;12.10;99.90
2212;DHT22;48849;48.758;9.158;2023-12-29T01:36:26;12.10;99.90
2212;DHT22;48849;48.758;9.158;2023-12-29T01:38:53;12.10;99.90
2212;DHT22;48849;48.758;9.158;2023-12-29T01:41:19;12.10;99.90
2212;DHT22;48849;48.758;9.158;2023-12-29T01:44:20;12.10;99.90
2212;DHT22;48849;48.758;9.158;2023-12-29T01:46:49;12.10;99.90
2212;DHT22;48849;48.758;9.158;2023-12-29T01:49:16;12.20;99.90
2212;DHT22;48849;48.758;9.158;2023-12-29T01:51:44;12.10;99.90
2212;DHT22;48849;48.758;9.158;2023-12-29T01:54:12;12.20;99.90
2212;DHT22;48849;48.758;9.158;2023-12-29T01:56:39;12.20;99.90
2212;DHT22;48849;48.758;9.158;2023-12-29T01:59:07;12.20;99.90
2212;DHT22;48849;48.758;9.158;2023-12-29T02:01:36;12.20;99.90
2212;DHT22;48849;48.758;9.158;2023-12-29T02:04:03;12.20;99.90
2212;DHT22;48849;48.758;9.158;2023-12-29T02:06:31;12.30;99.90
2212;DHT22;48849;48.758;9.158;2023-12-29T02:08:58;12.30;99.90
2212;DHT22;48849;48.758;9.158;2023-12-29T02:11:26;12.30;99.90
2212;DHT22;48849;48.758;9.158;2023-12-29T02:13:52;12.30;99.90
2212;DHT22;48849;48.758;9.158;2023-12-29T02:16:30;12.30;99.90
2212;DHT22;48849;48.758;9.158;2023-12-29T02:21:46;12.30;99.90
2212;DHT22;48849;48.758;9.158;2023-12-29T02:24:13;12.30;99.90
2212;DHT22;48849;48.758;9.158;2023-12-29T02:26:43;12.40;99.90
2212;DHT22;48849;48.758;9.158;2023-12-29T02:29:14;12.40;99.90
2212;DHT22;48849;48.758;9.158;2023-12-29T02:31:47;12.40;99.90
2212;DHT22;48849;48.758;9.158;2023-12-29T02:34:18;12.40;99.90
2212;DHT22;48849;48.758;9.158;2023-12-29T02:36:46;12.40;99.90
2212;DHT22;48849;48.758;9.158;2023-12-29T02:39:16;12.40;99.90
2212;DHT22;48849;48.758;9.158;2023-12-29T02:41:44;12.50;99.90
2212;DHT22;48849;48.758;9.158;2023-12-29T02:44:11;12.50;99.90
2212;DHT22;48849;48.758;9.158;2023-12-29T02:46:38;12.40;99.90
2212;DHT22;48849;48.758;9.158;2023-12-29T02:49:05;12.40;99.90
2212;DHT22;48849;48.758;9.158;2023-12-29T02:51:36;12.50;99.90
2212;DHT22;48849;48.758;9.158;2023-12-29T02:54:03;12.50;99.90
2212;DHT22;48849;48.758;9.158;2023-12-29T02:56:31;12.40;99.90
2212;DHT22;48849;48.758;9.158;2023-12-29T02:58:59;12.50;99.90
2212;DHT22;48849;48.758;9.158;2023-12-29T03:01:29;12.40;99.90
2212;DHT22;48849;48.758;9.158;2023-12-29T03:03:55;12.40;99.90
2212;DHT22;48849;48.758;9.158;2023-12-29T03:06:22;12.50;99.90
2212;DHT22;48849;48.758;9.158;2023-12-29T03:08:50;12.50;99.90
2212;DHT22;48849;48.758;9.158;2023-12-29T03:11:18;12.40;99.90
2212;DHT22;48849;48.758;9.158;2023-12-29T03:13:45;12.40;99.90
2212;DHT22;48849;48.758;9.158;2023-12-29T03:16:13;12.40;99.90
2212;DHT22;48849;48.758;9.158;2023-12-29T03:18:39;12.40;99.90
2212;DHT22;48849;48.758;9.158;2023-12-29T03:21:07;12.40;99.90
2212;DHT22;48849;48.758;9.158;2023-12-29T03:23:34;12.40;99.90
2212;DHT22;48849;48.758;9.158;2023-12-29T03:26:00;12.40;99.90
2212;DHT22;48849;48.758;9.158;2023-12-29T03:28:28;12.40;99.90
2212;DHT22;48849;48.758;9.158;2023-12-29T03:30:55;12.40;99.90
2212;DHT22;48849;48.758;9.158;2023-12-29T03:33:23;12.40;99.90
2212;DHT22;48849;48.758;9.158;2023-12-29T03:35:49;12.30;99.90
2212;DHT22;48849;48.758;9.158;2023-12-29T03:38:16;12.30;99.90
2212;DHT22;48849;48.758;9.158;2023-12-29T03:40:43;12.40;99.90
2212;DHT22;48849;48.758;9.158;2023-12-29T03:43:09;12.40;99.90
2212;DHT22;48849;48.758;9.158;2023-12-29T03:45:36;12.40;99.90
2212;DHT22;48849;48.758;9.158;2023-12-29T03:48:03;12.40;99.90
2212;DHT22;48849;48.758;9.158;2023-12-29T03:50:31;12.40;99.90
2212;DHT22;48849;48.758;9.158;2023-12-29T03:52:58;12.40;99.90
2212;DHT22;48849;48.758;9.158;2023-12-29T03:55:24;12.40;99.90
2212;DHT22;48849;48.758;9.158;2023-12-29T03:57:51;12.40;99.90
2212;DHT22;48849;48.758;9.158;2023-12-29T04:00:18;12.40;99.90
2212;DHT22;48849;48.758;9.158;2023-12-29T04:02:45;12.40;99.90
2212;DHT22;48849;48.758;9.158;2023-12-29T04:05:11;12.40;99.90
2212;DHT22;48849;48.758;9.158;2023-12-29T04:07:40;12.40;99.90
2212;DHT22;48849;48.758;9.158;2023-12-29T04:10:07;12.40;99.90
2212;DHT22;48849;48.758;9.158;2023-12-29T04:12:33;12.40;99.90
2212;DHT22;48849;48.758;9.158;2023-12-29T04:15:01;12.30;99.90
2212;DHT22;48849;48.758;9.158;2023-12-29T04:17:27;12.40;99.90
2212;DHT22;48849;48.758;9.158;2023-12-29T04:19:54;12.40;99.90
2212;DHT22;48849;48.758;9.158;2023-12-29T04:22:21;12.40;99.90
2212;DHT22;48849;48.758;9.158;2023-12-29T04:24:49;12.30;99.90
2212;DHT22;48849;48.758;9.158;2023-12-29T04:27:16;12.30;99.90
2212;DHT22;48849;48.758;9.158;2023-12-29T04:29:43;12.30;99.90
2212;DHT22;48849;48.758;9.158;2023-12-29T04:32:10;12.30;99.90
2212;DHT22;48849;48.758;9.158;2023-12-29T04:34:37;12.20;99.90
2212;DHT22;48849;48.758;9.158;2023-12-29T04:37:04;12.20;99.90
2212;DHT22;48849;48.758;9.158;2023-12-29T04:39:30;12.20;99.90
2212;DHT22;48849;48.758;9.158;2023-12-29T04:41:58;12.20;99.90
2212;DHT22;48849;48.758;9.158;2023-12-29T04:44:25;12.20;99.90
2212;DHT22;48849;48.758;9.158;2023-12-29T04:46:52;12.20;99.90
2212;DHT22;48849;48.758;9.158;2023-12-29T04:49:18;12.20;99.90
2212;DHT22;48849;48.758;9.158;2023-12-29T04:51:45;12.20;99.90
2212;DHT22;48849;48.758;9.158;2023-12-29T04:54:13;12.30;99.90
2212;DHT22;48849;48.758;9.158;2023-12-29T04:56:40;12.30;99.90
2212;DHT22;48849;48.758;9.158;2023-12-29T04:59:08;12.30;99.90
2212;DHT22;48849;48.758;9.158;2023-12-29T05:01:35;12.30;99.90
2212;DHT22;48849;48.758;9.158;2023-12-29T05:04:02;12.30;99.90
2212;DHT22;48849;48.758;9.158;2023-12-29T05:06:28;12.30;99.90
2212;DHT22;48849;48.758;9.158;2023-12-29T05:08:55;12.30;99.90
2212;DHT22;48849;48.758;9.158;2023-12-29T05:11:22;12.30;99.90
2212;DHT22;48849;48.758;9.158;2023-12-29T05:13:48;12.30;99.90
2212;DHT22;48849;48.758;9.158;2023-12-29T05:16:16;12.30;99.90
2212;DHT22;48849;48.758;9.158;2023-12-29T05:18:43;12.30;99.90
2212;DHT22;48849;48.758;9.158;2023-12-29T05:21:14;12.30;99.90
2212;DHT22;48849;48.758;9.158;2023-12-29T05:23:41;12.30;99.90
2212;DHT22;48849;48.758;9.158;2023-12-29T05:26:08;12.30;99.90
2212;DHT22;48849;48.758;9.158;2023-12-29T05:28:35;12.30;99.90
2212;DHT22;48849;48.758;9.158;2023-12-29T05:31:01;12.30;99.90
2212;DHT22;48849;48.758;9.158;2023-12-29T05:33:30;12.30;99.90
2212;DHT22;48849;48.758;9.158;2023-12-29T05:35:57;12.30;99.90
2212;DHT22;48849;48.758;9.158;2023-12-29T05:38:23;12.30;99.90
2212;DHT22;48849;48.758;9.158;2023-12-29T05:40:50;12.30;99.90
2212;DHT22;48849;48.758;9.158;2023-12-29T05:43:18;12.30;99.90
2212;DHT22;48849;48.758;9.158;2023-12-29T05:45:45;12.30;99.90
2212;DHT22;48849;48.758;9.158;2023-12-29T05:48:12;12.30;99.90
2212;DHT22;48849;48.758;9.158;2023-12-29T05:50:40;12.20;99.90
2212;DHT22;48849;48.758;9.158;2023-12-29T05:53:06;12.30;99.90
2212;DHT22;48849;48.758;9.158;2023-12-29T05:55:33;12.20;99.90
2212;DHT22;48849;48.758;9.158;2023-12-29T05:58:00;12.20;99.90
2212;DHT22;48849;48.758;9.158;2023-12-29T06:00:26;12.20;99.90
2212;DHT22;48849;48.758;9.158;2023-12-29T06:02:53;12.20;99.90
2212;DHT22;48849;48.758;9.158;2023-12-29T06:05:20;12.10;99.90
2212;DHT22;48849;48.758;9.158;2023-12-29T06:07:48;12.10;99.90
2212;DHT22;48849;48.758;9.158;2023-12-29T06:10:14;12.20;99.90
2212;DHT22;48849;48.758;9.158;2023-12-29T06:12:41;12.10;99.90
2212;DHT22;48849;48.758;9.158;2023-12-29T06:15:08;12.10;99.90
2212;DHT22;48849;48.758;9.158;2023-12-29T06:17:35;12.10;99.90
2212;DHT22;48849;48.758;9.158;2023-12-29T06:20:02;12.20;99.90
2212;DHT22;48849;48.758;9.158;2023-12-29T06:22:31;12.00;99.90
2212;DHT22;48849;48.758;9.158;2023-12-29T06:24:59;12.00;99.90
2212;DHT22;48849;48.758;9.158;2023-12-29T06:27:26;12.00;99.90
2212;DHT22;48849;48.758;9.158;2023-12-29T06:29:53;12.00;99.90
2212;DHT22;48849;48.758;9.158;2023-12-29T06:32:20;12.00;99.90
2212;DHT22;48849;48.758;9.158;2023-12-29T06:34:47;12.00;99.90
2212;DHT22;48849;48.758;9.158;2023-12-29T06:37:14;12.00;99.90
2212;DHT22;48849;48.758;9.158;2023-12-29T06:39:41;12.00;99.90
2212;DHT22;48849;48.758;9.158;2023-12-29T06:42:09;12.00;99.90
2212;DHT22;48849;48.758;9.158;2023-12-29T06:44:35;12.00;99.90
2212;DHT22;48849;48.758;9.158;2023-12-29T06:47:02;12.10;99.90
2212;DHT22;48849;48.758;9.158;2023-12-29T06:49:31;12.10;99.90
2212;DHT22;48849;48.758;9.158;2023-12-29T06:51:58;12.10;99.90
2212;DHT22;48849;48.758;9.158;2023-12-29T06:54:25;12.10;99.90
2212;DHT22;48849;48.758;9.158;2023-12-29T06:56:51;12.10;99.90
2212;DHT22;48849;48.758;9.158;2023-12-29T06:59:19;12.10;99.90
2212;DHT22;48849;48.758;9.158;2023-12-29T07:01:46;12.10;99.90
2212;DHT22;48849;48.758;9.158;2023-12-29T07:04:13;12.00;99.90
2212;DHT22;48849;48.758;9.158;2023-12-29T07:06:41;12.10;99.90
2212;DHT22;48849;48.758;9.158;2023-12-29T07:09:07;12.10;99.90
2212;DHT22;48849;48.758;9.158;2023-12-29T07:11:35;12.10;99.90
2212;DHT22;48849;48.758;9.158;2023-12-29T07:14:02;12.10;99.90
2212;DHT22;48849;48.758;9.158;2023-12-29T07:16:30;12.10;99.90
2212;DHT22;48849;48.758;9.158;2023-12-29T07:18:56;12.10;99.90
2212;DHT22;48849;48.758;9.158;2023-12-29T07:21:23;12.10;99.90
2212;DHT22;48849;48.758;9.158;2023-12-29T07:23:50;12.10;99.90
2212;DHT22;48849;48.758;9.158;2023-12-29T07:26:17;12.10;99.90
2212;DHT22;48849;48.758;9.158;2023-12-29T07:28:43;12.20;99.90
2212;DHT22;48849;48.758;9.158;2023-12-29T07:31:10;12.20;99.90
2212;DHT22;48849;48.758;9.158;2023-12-29T07:33:39;12.20;99.90
2212;DHT22;48849;48.758;9.158;2023-12-29T07:36:06;12.20;99.90
2212;DHT22;48849;48.758;9.158;2023-12-29T07:38:32;12.20;99.90
2212;DHT22;48849;48.758;9.158;2023-12-29T07:40:59;12.20;99.90
2212;DHT22;48849;48.758;9.158;2023-12-29T07:43:27;12.20;99.90
2212;DHT22;48849;48.758;9.158;2023-12-29T07:45:53;12.20;99.90
2212;DHT22;48849;48.758;9.158;2023-12-29T07:48:20;12.20;99.90
2212;DHT22;48849;48.758;9.158;2023-12-29T07:50:48;12.20;99.90
2212;DHT22;48849;48.758;9.158;2023-12-29T07:53:15;12.20;99.90
2212;DHT22;48849;48.758;9.158;2023-12-29T07:55:42;12.20;99.90
2212;DHT22;48849;48.758;9.158;2023-12-29T07:58:11;12.20;99.90
2212;DHT22;48849;48.758;9.158;2023-12-29T08:00:38;12.20;99.90
2212;DHT22;48849;48.758;9.158;2023-12-29T08:03:05;12.20;99.90
2212;DHT22;48849;48.758;9.158;2023-12-29T08:05:32;12.20;99.90
2212;DHT22;48849;48.758;9.158;2023-12-29T08:08:01;12.20;99.90
2212;DHT22;48849;48.758;9.158;2023-12-29T08:10:28;12.20;99.90
2212;DHT22;48849;48.758;9.158;2023-12-29T08:12:55;12.20;99.90
2212;DHT22;48849;48.758;9.158;2023-12-29T08:15:21;12.20;99.90
2212;DHT22;48849;48.758;9.158;2023-12-29T08:17:48;12.30;99.90
2212;DHT22;48849;48.758;9.158;2023-12-29T08:20:15;12.30;99.90
2212;DHT22;48849;48.758;9.158;2023-12-29T08:22:41;12.30;99.90
2212;DHT22;48849;48.758;9.158;2023-12-29T08:25:09;12.30;99.90
2212;DHT22;48849;48.758;9.158;2023-12-29T08:27:37;12.30;99.90
2212;DHT22;48849;48.758;9.158;2023-12-29T08:30:04;12.30;99.90
2212;DHT22;48849;48.758;9.158;2023-12-29T08:32:31;12.30;99.90
2212;DHT22;48849;48.758;9.158;2023-12-29T08:34:59;12.30;99.90
2212;DHT22;48849;48.758;9.158;2023-12-29T08:37:25;12.30;99.90
2212;DHT22;48849;48.758;9.158;2023-12-29T08:39:52;12.30;99.90
2212;DHT22;48849;48.758;9.158;2023-12-29T08:42:21;12.30;99.90
2212;DHT22;48849;48.758;9.158;2023-12-29T08:44:48;12.30;99.90
2212;DHT22;48849;48.758;9.158;2023-12-29T08:47:15;12.30;99.90
2212;DHT22;48849;48.758;9.158;2023-12-29T08:49:42;12.30;99.90
2212;DHT22;48849;48.758;9.158;2023-12-29T08:52:09;12.30;99.90
2212;DHT22;48849;48.758;9.158;2023-12-29T08:54:35;12.30;99.90
2212;DHT22;48849;48.758;9.158;2023-12-29T08:57:03;12.30;99.90
2212;DHT22;48849;48.758;9.158;2023-12-29T08:59:31;12.30;99.90
2212;DHT22;48849;48.758;9.158;2023-12-29T09:01:58;12.40;99.90
2212;DHT22;48849;48.758;9.158;2023-12-29T09:04:24;12.30;99.90
2212;DHT22;48849;48.758;9.158;2023-12-29T09:06:52;12.30;99.90
2212;DHT22;48849;48.758;9.158;2023-12-29T09:09:18;12.40;99.90
2212;DHT22;48849;48.758;9.158;2023-12-29T09:11:45;12.40;99.90
2212;DHT22;48849;48.758;9.158;2023-12-29T09:14:12;12.40;99.90
2212;DHT22;48849;48.758;9.158;2023-12-29T09:16:41;12.40;99.90
2212;DHT22;48849;48.758;9.158;2023-12-29T09:19:08;12.40;99.90
2212;DHT22;48849;48.758;9.158;2023-12-29T09:21:34;12.40;99.90
2212;DHT22;48849;48.758;9.158;2023-12-29T09:24:01;12.40;99.90
2212;DHT22;48849;48.758;9.158;2023-12-29T09:26:28;12.40;99.90
2212;DHT22;48849;48.758;9.158;2023-12-29T09:28:55;12.50;99.90
2212;DHT22;48849;48.758;9.158;2023-12-29T09:31:21;12.50;99.90
2212;DHT22;48849;48.758;9.158;2023-12-29T09:33:50;12.50;99.90
2212;DHT22;48849;48.758;9.158;2023-12-29T09:36:16;12.50;99.90
2212;DHT22;48849;48.758;9.158;2023-12-29T09:38:43;12.60;99.90
2212;DHT22;48849;48.758;9.158;2023-12-29T09:41:14;12.60;99.90
2212;DHT22;48849;48.758;9.158;2023-12-29T09:43:41;12.60;99.90
2212;DHT22;48849;48.758;9.158;2023-12-29T09:46:08;12.60;99.90
2212;DHT22;48849;48.758;9.158;2023-12-29T09:48:37;12.60;99.90
2212;DHT22;48849;48.758;9.158;2023-12-29T09:51:05;12.70;99.90
2212;DHT22;48849;48.758;9.158;2023-12-29T09:53:35;12.70;99.90
2212;DHT22;48849;48.758;9.158;2023-12-29T09:56:03;12.60;99.90
2212;DHT22;48849;48.758;9.158;2023-12-29T09:58:32;12.60;99.90
2212;DHT22;48849;48.758;9.158;2023-12-29T10:00:59;12.60;99.90
2212;DHT22;48849;48.758;9.158;2023-12-29T10:03:27;12.70;99.90
2212;DHT22;48849;48.758;9.158;2023-12-29T10:05:55;12.70;99.90
2212;DHT22;48849;48.758;9.158;2023-12-29T10:08:24;12.70;99.90
2212;DHT22;48849;48.758;9.158;2023-12-29T10:10:53;12.70;99.90
2212;DHT22;48849;48.758;9.158;2023-12-29T10:13:21;12.70;99.90
2212;DHT22;48849;48.758;9.158;2023-12-29T10:15:53;12.70;99.90
2212;DHT22;48849;48.758;9.158;2023-12-29T10:18:26;12.70;99.90
2212;DHT22;48849;48.758;9.158;2023-12-29T10:21:01;12.70;99.90
2212;DHT22;48849;48.758;9.158;2023-12-29T10:23:36;12.70;99.90
2212;DHT22;48849;48.758;9.158;2023-12-29T10:26:05;12.70;99.90
2212;DHT22;48849;48.758;9.158;2023-12-29T10:28:32;12.70;99.90
2212;DHT22;48849;48.758;9.158;2023-12-29T10:30:59;12.70;99.90
2212;DHT22;48849;48.758;9.158;2023-12-29T10:33:26;12.70;99.90
2212;DHT22;48849;48.758;9.158;2023-12-29T10:35:58;12.80;99.90
2212;DHT22;48849;48.758;9.158;2023-12-29T10:38:29;12.80;99.90
2212;DHT22;48849;48.758;9.158;2023-12-29T10:41:10;12.80;99.90
2212;DHT22;48849;48.758;9.158;2023-12-29T10:43:37;12.80;99.90
2212;DHT22;48849;48.758;9.158;2023-12-29T10:46:06;12.80;99.90
2212;DHT22;48849;48.758;9.158;2023-12-29T10:48:33;12.80;99.90
2212;DHT22;48849;48.758;9.158;2023-12-29T10:51:00;12.90;99.90
2212;DHT22;48849;48.758;9.158;2023-12-29T10:53:31;12.80;99.90
2212;DHT22;48849;48.758;9.158;2023-12-29T10:55:57;12.80;99.90
2212;DHT22;48849;48.758;9.158;2023-12-29T10:58:24;12.90;99.90
2212;DHT22;48849;48.758;9.158;2023-12-29T11:00:53;12.90;99.90
2212;DHT22;48849;48.758;9.158;2023-12-29T11:03:19;12.90;99.90
2212;DHT22;48849;48.758;9.158;2023-12-29T11:05:46;12.90;99.90
2212;DHT22;48849;48.758;9.158;2023-12-29T11:08:17;13.00;99.90
2212;DHT22;48849;48.758;9.158;2023-12-29T11:10:47;13.00;99.90
2212;DHT22;48849;48.758;9.158;2023-12-29T11:13:14;13.00;99.90
2212;DHT22;48849;48.758;9.158;2023-12-29T11:15:42;13.00;99.90
2212;DHT22;48849;48.758;9.158;2023-12-29T11:18:12;13.00;99.90
2212;DHT22;48849;48.758;9.158;2023-12-29T11:20:39;13.10;99.90
2212;DHT22;48849;48.758;9.158;2023-12-29T11:23:07;13.10;99.90
2212;DHT22;48849;48.758;9.158;2023-12-29T11:25:35;13.10;99.90
2212;DHT22;48849;48.758;9.158;2023-12-29T11:28:03;13.10;99.90
2212;DHT22;48849;48.758;9.158;2023-12-29T11:30:31;13.10;99.90
2212;DHT22;48849;48.758;9.158;2023-12-29T11:33:01;13.10;99.90
2212;DHT22;48849;48.758;9.158;2023-12-29T11:35:33;13.20;99.90
2212;DHT22;48849;48.758;9.158;2023-12-29T11:38:23;13.20;99.90
2212;DHT22;48849;48.758;9.158;2023-12-29T11:40:56;13.20;99.90
2212;DHT22;48849;48.758;9.158;2023-12-29T11:43:26;13.20;99.90
2212;DHT22;48849;48.758;9.158;2023-12-29T11:45:53;13.20;99.90
2212;DHT22;48849;48.758;9.158;2023-12-29T11:48:53;13.20;99.90
2212;DHT22;48849;48.758;9.158;2023-12-29T11:51:30;13.20;99.90
2212;DHT22;48849;48.758;9.158;2023-12-29T11:53:57;13.20;99.90
2212;DHT22;48849;48.758;9.158;2023-12-29T11:56:24;13.20;99.90
2212;DHT22;48849;48.758;9.158;2023-12-29T11:59:12;13.20;99.90
2212;DHT22;48849;48.758;9.158;2023-12-29T12:01:39;13.30;99.90
2212;DHT22;48849;48.758;9.158;2023-12-29T12:04:36;13.30;99.90
2212;DHT22;48849;48.758;9.158;2023-12-29T12:07:07;13.30;99.90
2212;DHT22;48849;48.758;9.158;2023-12-29T12:09:34;13.40;99.90
2212;DHT22;48849;48.758;9.158;2023-12-29T12:12:02;13.30;99.90
2212;DHT22;48849;48.758;9.158;2023-12-29T12:14:50;13.30;99.90
2212;DHT22;48849;48.758;9.158;2023-12-29T12:17:30;13.40;99.90
2212;DHT22;48849;48.758;9.158;2023-12-29T12:19:58;13.40;99.90
2212;DHT22;48849;48.758;9.158;2023-12-29T12:22:25;13.40;99.90
2212;DHT22;48849;48.758;9.158;2023-12-29T12:24:56;13.40;99.90
2212;DHT22;48849;48.758;9.158;2023-12-29T12:27:23;13.40;99.90
2212;DHT22;48849;48.758;9.158;2023-12-29T12:29:54;13.40;99.90
2212;DHT22;48849;48.758;9.158;2023-12-29T12:32:25;13.40;99.90
2212;DHT22;48849;48.758;9.158;2023-12-29T12:34:52;13.40;99.90
2212;DHT22;48849;48.758;9.158;2023-12-29T12:37:19;13.40;99.90
2212;DHT22;48849;48.758;9.158;2023-12-29T12:39:46;13.30;99.90
2212;DHT22;48849;48.758;9.158;2023-12-29T12:42:13;13.40;99.90
2212;DHT22;48849;48.758;9.158;2023-12-29T12:44:42;13.40;99.90
2212;DHT22;48849;48.758;9.158;2023-12-29T12:47:25;13.40;99.90
2212;DHT22;48849;48.758;9.158;2023-12-29T12:49:52;13.50;99.90
2212;DHT22;48849;48.758;9.158;2023-12-29T12:52:19;13.40;99.90
2212;DHT22;48849;48.758;9.158;2023-12-29T12:54:47;13.50;99.90
2212;DHT22;48849;48.758;9.158;2023-12-29T12:57:18;13.50;99.90
2212;DHT22;48849;48.758;9.158;2023-12-29T12:59:45;13.50;99.90
2212;DHT22;48849;48.758;9.158;2023-12-29T13:02:12;13.50;99.90
2212;DHT22;48849;48.758;9.158;2023-12-29T13:04:41;13.50;99.90
2212;DHT22;48849;48.758;9.158;2023-12-29T13:07:09;13.50;99.90
2212;DHT22;48849;48.758;9.158;2023-12-29T13:09:36;13.50;99.90
2212;DHT22;48849;48.758;9.158;2023-12-29T13:12:10;13.50;99.90
2212;DHT22;48849;48.758;9.158;2023-12-29T13:14:37;13.50;99.90
2212;DHT22;48849;48.758;9.158;2023-12-29T13:17:06;13.50;99.90
2212;DHT22;48849;48.758;9.158;2023-12-29T13:19:33;13.50;99.90
2212;DHT22;48849;48.758;9.158;2023-12-29T13:22:03;13.60;99.90
2212;DHT22;48849;48.758;9.158;2023-12-29T13:24:32;13.60;99.90
2212;DHT22;48849;48.758;9.158;2023-12-29T13:27:04;13.60;99.90
2212;DHT22;48849;48.758;9.158;2023-12-29T13:29:31;13.60;99.90
2212;DHT22;48849;48.758;9.158;2023-12-29T13:32:00;13.70;99.90
2212;DHT22;48849;48.758;9.158;2023-12-29T13:34:32;13.60;99.90
2212;DHT22;48849;48.758;9.158;2023-12-29T13:37:05;13.60;99.90
2212;DHT22;48849;48.758;9.158;2023-12-29T13:39:37;13.60;99.90
2212;DHT22;48849;48.758;9.158;2023-12-29T13:42:09;13.60;99.90
2212;DHT22;48849;48.758;9.158;2023-12-29T13:44:39;13.70;99.90
2212;DHT22;48849;48.758;9.158;2023-12-29T13:47:07;13.70;99.90
2212;DHT22;48849;48.758;9.158;2023-12-29T13:49:34;13.70;99.90
2212;DHT22;48849;48.758;9.158;2023-12-29T13:52:03;13.70;99.90
2212;DHT22;48849;48.758;9.158;2023-12-29T13:54:30;13.70;99.90
2212;DHT22;48849;48.758;9.158;2023-12-29T13:57:06;13.70;99.90
2212;DHT22;48849;48.758;9.158;2023-12-29T13:59:33;13.70;99.90
2212;DHT22;48849;48.758;9.158;2023-12-29T14:02:15;13.70;99.90
2212;DHT22;48849;48.758;9.158;2023-12-29T14:04:45;13.70;99.90
2212;DHT22;48849;48.758;9.158;2023-12-29T14:07:13;13.70;99.90
2212;DHT22;48849;48.758;9.158;2023-12-29T14:09:41;13.70;99.90
2212;DHT22;48849;48.758;9.158;2023-12-29T14:12:08;13.70;99.90
2212;DHT22;48849;48.758;9.158;2023-12-29T14:14:34;13.70;99.90
2212;DHT22;48849;48.758;9.158;2023-12-29T14:17:01;13.70;99.90
2212;DHT22;48849;48.758;9.158;2023-12-29T14:19:34;13.70;99.90
2212;DHT22;48849;48.758;9.158;2023-12-29T14:22:01;13.70;99.90
2212;DHT22;48849;48.758;9.158;2023-12-29T14:24:29;13.70;99.90
2212;DHT22;48849;48.758;9.158;2023-12-29T14:26:57;13.70;99.90
2212;DHT22;48849;48.758;9.158;2023-12-29T14:29:24;13.70;99.90
2212;DHT22;48849;48.758;9.158;2023-12-29T14:31:52;13.70;99.90
2212;DHT22;48849;48.758;9.158;2023-12-29T14:34:19;13.70;99.90
2212;DHT22;48849;48.758;9.158;2023-12-29T14:36:46;13.70;99.90
2212;DHT22;48849;48.758;9.158;2023-12-29T14:39:13;13.70;99.90
2212;DHT22;48849;48.758;9.158;2023-12-29T14:41:42;13.70;99.90
2212;DHT22;48849;48.758;9.158;2023-12-29T14:44:09;13.70;99.90
2212;DHT22;48849;48.758;9.158;2023-12-29T14:46:36;13.70;99.90
2212;DHT22;48849;48.758;9.158;2023-12-29T14:49:03;13.70;99.90
2212;DHT22;48849;48.758;9.158;2023-12-29T14:51:30;13.70;99.90
2212;DHT22;48849;48.758;9.158;2023-12-29T14:53:57;13.60;99.90
2212;DHT22;48849;48.758;9.158;2023-12-29T14:56:23;13.70;99.90
2212;DHT22;48849;48.758;9.158;2023-12-29T14:58:51;13.70;99.90
2212;DHT22;48849;48.758;9.158;2023-12-29T15:01:18;13.70;99.90
2212;DHT22;48849;48.758;9.158;2023-12-29T15:03:45;13.70;99.90
2212;DHT22;48849;48.758;9.158;2023-12-29T15:06:11;13.70;99.90
2212;DHT22;48849;48.758;9.158;2023-12-29T15:08:37;13.70;99.90
2212;DHT22;48849;48.758;9.158;2023-12-29T15:11:05;13.70;99.90
2212;DHT22;48849;48.758;9.158;2023-12-29T15:13:32;13.70;99.90
2212;DHT22;48849;48.758;9.158;2023-12-29T15:16:01;13.70;99.90
2212;DHT22;48849;48.758;9.158;2023-12-29T15:18:29;13.70;99.90
2212;DHT22;48849;48.758;9.158;2023-12-29T15:20:56;13.70;99.90
2212;DHT22;48849;48.758;9.158;2023-12-29T15:23:23;13.70;99.90
2212;DHT22;48849;48.758;9.158;2023-12-29T15:25:50;13.70;99.90
2212;DHT22;48849;48.758;9.158;2023-12-29T15:28:17;13.70;99.90
2212;DHT22;48849;48.758;9.158;2023-12-29T15:30:44;13.70;99.90
2212;DHT22;48849;48.758;9.158;2023-12-29T15:33:12;13.60;99.90
2212;DHT22;48849;48.758;9.158;2023-12-29T15:35:39;13.60;99.90
2212;DHT22;48849;48.758;9.158;2023-12-29T15:38:06;13.60;99.90
2212;DHT22;48849;48.758;9.158;2023-12-29T15:40:33;13.60;99.90
2212;DHT22;48849;48.758;9.158;2023-12-29T15:43:00;13.60;99.90
2212;DHT22;48849;48.758;9.158;2023-12-29T15:45:29;13.60;99.90
2212;DHT22;48849;48.758;9.158;2023-12-29T15:47:56;13.60;99.90
2212;DHT22;48849;48.758;9.158;2023-12-29T15:50:24;13.60;99.90
2212;DHT22;48849;48.758;9.158;2023-12-29T15:52:50;13.70;99.90